Time;durP1;ratioP1;P1;durP2;ratioP2;P2;SDS_P1;SDS_P2;PMS_P1;PMS_P2;Temp;Humidity;BMP_temperature;BMP_pressure;BME280_temperature;BME280_humidity;BME280_pressure;Samples;Min_cycle;Max_cycle;Signal;HPM_P1;HPM_P2
2021/08/24 00:01:55;;;;;;;22.25;9.13;;;24.80;52.10;;;;;;5053670;28;20037;-53
2021/08/24 00:04:21;;;;;;;17.80;8.82;;;24.80;52.10;;;;;;5053872;28;20021;-53
2021/08/24 00:06:48;;;;;;;15.13;8.40;;;24.80;52.20;;;;;;5053014;28;20753;-53
2021/08/24 00:09:14;;;;;;;21.95;9.07;;;24.80;52.20;;;;;;5053920;28;20078;-53
2021/08/24 00:11:41;;;;;;;19.35;8.73;;;24.80;52.40;;;;;;5052887;28;20413;-53
2021/08/24 00:14:08;;;;;;;16.92;9.13;;;24.70;52.30;;;;;;5053583;28;20024;-53
2021/08/24 00:16:35;;;;;;;21.73;9.23;;;24.70;52.40;;;;;;5054076;28;20086;-52
2021/08/24 00:19:02;;;;;;;19.67;9.65;;;24.70;52.60;;;;;;5053470;28;20515;-53
2021/08/24 00:21:29;;;;;;;21.30;9.18;;;24.70;52.50;;;;;;5053181;28;20071;-54
2021/08/24 00:23:55;;;;;;;18.05;8.93;;;24.70;52.30;;;;;;5058387;28;20103;-53
2021/08/24 00:26:22;;;;;;;17.17;8.25;;;24.60;52.40;;;;;;5060634;28;20045;-54
2021/08/24 00:28:48;;;;;;;18.15;8.82;;;24.60;52.60;;;;;;5059877;28;20469;-52
2021/08/24 00:31:15;;;;;;;20.17;9.85;;;24.60;52.60;;;;;;5059214;28;20124;-55
2021/08/24 00:33:41;;;;;;;20.63;9.20;;;24.60;52.50;;;;;;5059083;28;20060;-53
2021/08/24 00:36:13;;;;;;;17.60;8.82;;;24.60;52.40;;;;;;5057769;28;20040;-53
2021/08/24 00:38:40;;;;;;;24.83;9.43;;;24.50;52.40;;;;;;5058036;28;20120;-52
2021/08/24 00:41:06;;;;;;;19.10;8.90;;;24.50;52.40;;;;;;5059607;28;20090;-53
2021/08/24 00:43:37;;;;;;;20.98;9.25;;;24.50;52.50;;;;;;5060205;28;20036;-53
2021/08/24 00:46:34;;;;;;;21.58;9.10;;;24.50;52.60;;;;;;5058837;28;20457;-53
2021/08/24 00:49:12;;;;;;;22.25;9.60;;;24.50;52.60;;;;;;5060272;28;20029;-53
2021/08/24 00:51:42;;;;;;;23.83;9.73;;;24.50;52.70;;;;;;5060318;28;20028;-53
2021/08/24 00:54:17;;;;;;;24.13;9.48;;;24.40;52.80;;;;;;5059536;28;20025;-53
2021/08/24 00:56:50;;;;;;;24.85;9.80;;;24.40;52.80;;;;;;5055316;28;20044;-53
2021/08/24 00:59:17;;;;;;;20.83;8.60;;;24.40;52.70;;;;;;5058349;28;20112;-53
2021/08/24 01:01:45;;;;;;;20.75;9.43;;;24.40;52.90;;;;;;5059381;28;20123;-53
2021/08/24 01:04:13;;;;;;;22.70;9.65;;;24.40;52.80;;;;;;5044448;28;20022;-53
2021/08/24 01:06:45;;;;;;;22.00;10.25;;;24.40;52.80;;;;;;5059580;28;20070;-53
2021/08/24 01:09:51;;;;;;;21.83;9.48;;;24.30;52.70;;;;;;5059959;28;20371;-53
2021/08/24 01:12:18;;;;;;;21.52;9.10;;;24.30;52.60;;;;;;5060327;28;20075;-52
2021/08/24 01:15:12;;;;;;;27.05;9.38;;;24.30;52.70;;;;;;5060114;28;20059;-53
2021/08/24 01:17:45;;;;;;;21.73;8.90;;;24.30;52.60;;;;;;5040545;28;20037;-53
2021/08/24 01:20:27;;;;;;;20.40;9.18;;;24.30;53.30;;;;;;5057708;28;20017;-52
2021/08/24 01:23:15;;;;;;;21.90;9.77;;;24.30;52.80;;;;;;5059625;28;20051;-53
2021/08/24 01:25:54;;;;;;;20.63;9.55;;;24.30;52.70;;;;;;5060218;28;20028;-53
2021/08/24 01:28:21;;;;;;;22.23;9.35;;;24.30;52.60;;;;;;5060437;28;20020;-53
2021/08/24 01:31:25;;;;;;;18.92;8.75;;;24.30;52.60;;;;;;5059256;28;20029;-52
2021/08/24 01:34:19;;;;;;;20.40;9.20;;;24.30;52.70;;;;;;5057813;28;20029;-53
2021/08/24 01:36:54;;;;;;;17.27;8.77;;;24.30;52.60;;;;;;5054649;28;20029;-54
2021/08/24 01:39:30;;;;;;;20.08;8.82;;;24.30;52.70;;;;;;5055328;28;20021;-54
2021/08/24 01:42:13;;;;;;;21.25;9.23;;;24.30;52.50;;;;;;5055029;28;20082;-53
2021/08/24 01:44:57;;;;;;;21.35;9.20;;;24.20;52.40;;;;;;5055906;28;20037;-52
2021/08/24 01:47:44;;;;;;;23.23;10.45;;;24.20;52.20;;;;;;5057012;28;20078;-54
2021/08/24 01:50:17;;;;;;;20.08;9.18;;;24.20;52.20;;;;;;5056199;28;20044;-53
2021/08/24 01:52:52;;;;;;;18.63;8.93;;;24.20;52.20;;;;;;5056631;28;20025;-53
2021/08/24 01:55:28;;;;;;;24.13;9.45;;;24.20;52.10;;;;;;5055850;28;20013;-53
2021/08/24 01:58:17;;;;;;;25.75;9.50;;;24.20;52.60;;;;;;5056550;28;20063;-52
